sensor_id;sensor_type;location;lat;lon;timestamp;pressure;altitude;pressure_sealevel;temperature;humidity
43298;BME280;28892;55.640;37.532;2023-02-03T00:01:02;97986.59;;;0.19;67.73
43298;BME280;28892;55.640;37.532;2023-02-03T00:03:27;97980.13;;;-0.05;68.46
43298;BME280;28892;55.640;37.532;2023-02-03T00:05:53;97984.38;;;-0.04;68.99
43298;BME280;28892;55.640;37.532;2023-02-03T00:08:20;97994.94;;;-0.05;69.34
43298;BME280;28892;55.640;37.532;2023-02-03T00:10:47;97989.34;;;-0.10;69.34
43298;BME280;28892;55.640;37.532;2023-02-03T00:13:14;97985.81;;;0.09;69.13
43298;BME280;28892;55.640;37.532;2023-02-03T00:15:39;97987.56;;;0.18;68.59
43298;BME280;28892;55.640;37.532;2023-02-03T00:18:05;97981.47;;;0.27;68.16
43298;BME280;28892;55.640;37.532;2023-02-03T00:20:31;97988.00;;;0.13;68.11
43298;BME280;28892;55.640;37.532;2023-02-03T00:23:08;97986.13;;;-0.04;69.59
43298;BME280;28892;55.640;37.532;2023-02-03T00:25:35;97986.00;;;-0.03;69.26
43298;BME280;28892;55.640;37.532;2023-02-03T00:28:00;97980.06;;;0.05;68.98
43298;BME280;28892;55.640;37.532;2023-02-03T00:30:26;97987.91;;;0.23;69.11
43298;BME280;28892;55.640;37.532;2023-02-03T00:32:53;97987.34;;;0.02;68.99
43298;BME280;28892;55.640;37.532;2023-02-03T00:35:20;97983.66;;;-0.06;69.62
43298;BME280;28892;55.640;37.532;2023-02-03T00:37:55;97986.06;;;0.16;69.52
43298;BME280;28892;55.640;37.532;2023-02-03T00:40:24;97987.63;;;0.26;69.22
43298;BME280;28892;55.640;37.532;2023-02-03T00:42:50;97991.53;;;0.40;68.14
43298;BME280;28892;55.640;37.532;2023-02-03T00:45:15;97979.75;;;0.36;67.99
43298;BME280;28892;55.640;37.532;2023-02-03T00:48:06;97984.22;;;0.62;68.04
43298;BME280;28892;55.640;37.532;2023-02-03T00:50:32;97987.31;;;0.11;68.83
43298;BME280;28892;55.640;37.532;2023-02-03T00:52:58;97981.59;;;0.26;68.95
43298;BME280;28892;55.640;37.532;2023-02-03T00:55:24;97983.66;;;-0.06;69.69
43298;BME280;28892;55.640;37.532;2023-02-03T00:57:50;97988.88;;;-0.06;70.17
43298;BME280;28892;55.640;37.532;2023-02-03T01:00:17;97978.66;;;-0.17;70.45
43298;BME280;28892;55.640;37.532;2023-02-03T01:02:43;97988.22;;;-0.08;70.38
43298;BME280;28892;55.640;37.532;2023-02-03T01:05:10;97985.81;;;0.09;69.83
43298;BME280;28892;55.640;37.532;2023-02-03T01:07:36;97981.06;;;0.22;69.41
43298;BME280;28892;55.640;37.532;2023-02-03T01:10:04;97983.75;;;0.12;69.61
43298;BME280;28892;55.640;37.532;2023-02-03T01:12:32;97978.09;;;0.17;69.44
43298;BME280;28892;55.640;37.532;2023-02-03T01:14:58;97976.38;;;0.26;69.25
43298;BME280;28892;55.640;37.532;2023-02-03T01:17:24;97978.78;;;0.09;69.35
43298;BME280;28892;55.640;37.532;2023-02-03T01:19:51;97979.94;;;0.07;69.67
43298;BME280;28892;55.640;37.532;2023-02-03T01:22:17;97978.22;;;0.44;68.23
43298;BME280;28892;55.640;37.532;2023-02-03T01:24:43;97970.34;;;0.25;68.67
43298;BME280;28892;55.640;37.532;2023-02-03T01:27:10;97965.88;;;-0.10;69.65
43298;BME280;28892;55.640;37.532;2023-02-03T01:29:36;97979.44;;;-0.45;71.26
43298;BME280;28892;55.640;37.532;2023-02-03T01:32:02;97977.97;;;-0.47;72.08
43298;BME280;28892;55.640;37.532;2023-02-03T01:34:28;97968.88;;;-0.05;70.98
43298;BME280;28892;55.640;37.532;2023-02-03T01:36:53;97970.75;;;-0.25;70.84
43298;BME280;28892;55.640;37.532;2023-02-03T01:39:20;97968.22;;;-0.45;71.64
43298;BME280;28892;55.640;37.532;2023-02-03T01:41:46;97968.81;;;-0.61;72.73
43298;BME280;28892;55.640;37.532;2023-02-03T01:46:57;97975.84;;;-0.34;72.18
43298;BME280;28892;55.640;37.532;2023-02-03T01:49:29;97969.97;;;-0.46;72.73
43298;BME280;28892;55.640;37.532;2023-02-03T01:51:58;97962.38;;;-0.29;72.24
43298;BME280;28892;55.640;37.532;2023-02-03T01:54:28;97965.38;;;-0.24;72.11
43298;BME280;28892;55.640;37.532;2023-02-03T01:56:58;97964.59;;;-0.34;72.47
43298;BME280;28892;55.640;37.532;2023-02-03T01:59:25;97962.84;;;-0.44;72.78
43298;BME280;28892;55.640;37.532;2023-02-03T02:01:55;97963.13;;;-0.47;73.08
43298;BME280;28892;55.640;37.532;2023-02-03T02:04:24;97964.09;;;-0.48;72.72
43298;BME280;28892;55.640;37.532;2023-02-03T02:06:52;97962.91;;;-0.63;73.48
43298;BME280;28892;55.640;37.532;2023-02-03T02:09:19;97965.19;;;-0.50;73.63
43298;BME280;28892;55.640;37.532;2023-02-03T02:11:46;97952.63;;;-0.27;72.74
43298;BME280;28892;55.640;37.532;2023-02-03T02:14:14;97967.00;;;-0.51;73.02
43298;BME280;28892;55.640;37.532;2023-02-03T02:16:57;97958.72;;;-0.36;73.91
43298;BME280;28892;55.640;37.532;2023-02-03T02:22:16;97948.00;;;-0.33;73.34
43298;BME280;28892;55.640;37.532;2023-02-03T02:27:27;97961.97;;;-0.72;74.64
43298;BME280;28892;55.640;37.532;2023-02-03T02:30:28;97957.00;;;-0.28;74.37
43298;BME280;28892;55.640;37.532;2023-02-03T02:41:19;97952.50;;;-0.73;74.76
43298;BME280;28892;55.640;37.532;2023-02-03T02:44:05;97950.63;;;-0.81;75.60
43298;BME280;28892;55.640;37.532;2023-02-03T02:46:53;97958.56;;;-0.35;75.14
43298;BME280;28892;55.640;37.532;2023-02-03T02:49:30;97953.19;;;-0.23;74.12
43298;BME280;28892;55.640;37.532;2023-02-03T02:52:01;97951.31;;;-0.41;74.18
43298;BME280;28892;55.640;37.532;2023-02-03T02:54:30;97952.09;;;-0.31;74.26
43298;BME280;28892;55.640;37.532;2023-02-03T02:56:59;97955.59;;;-0.12;74.25
43298;BME280;28892;55.640;37.532;2023-02-03T02:59:28;97949.31;;;-0.57;74.52
43298;BME280;28892;55.640;37.532;2023-02-03T03:01:53;97941.72;;;-0.40;74.55
43298;BME280;28892;55.640;37.532;2023-02-03T03:04:25;97953.06;;;-0.32;74.59
43298;BME280;28892;55.640;37.532;2023-02-03T03:06:57;97960.22;;;-0.44;74.77
43298;BME280;28892;55.640;37.532;2023-02-03T03:09:27;97954.53;;;-0.57;75.28
43298;BME280;28892;55.640;37.532;2023-02-03T03:12:36;97952.75;;;-0.66;76.26
43298;BME280;28892;55.640;37.532;2023-02-03T03:15:11;97966.31;;;-0.53;75.99
43298;BME280;28892;55.640;37.532;2023-02-03T03:17:46;97957.25;;;-0.49;75.80
43298;BME280;28892;55.640;37.532;2023-02-03T03:20:18;97954.63;;;-0.49;75.89
43298;BME280;28892;55.640;37.532;2023-02-03T03:22:50;97969.19;;;-0.46;75.43
43298;BME280;28892;55.640;37.532;2023-02-03T03:25:24;97955.66;;;-0.32;75.38
43298;BME280;28892;55.640;37.532;2023-02-03T03:27:58;97961.81;;;-0.23;75.14
43298;BME280;28892;55.640;37.532;2023-02-03T03:30:31;97947.38;;;-0.45;75.52
43298;BME280;28892;55.640;37.532;2023-02-03T03:32:58;97948.69;;;-0.31;75.59
43298;BME280;28892;55.640;37.532;2023-02-03T03:35:30;97948.00;;;-0.81;76.57
43298;BME280;28892;55.640;37.532;2023-02-03T03:38:01;97949.72;;;-0.24;76.59
43298;BME280;28892;55.640;37.532;2023-02-03T03:40:35;97961.59;;;-0.39;75.94
43298;BME280;28892;55.640;37.532;2023-02-03T03:45:46;97954.94;;;-0.24;75.81
43298;BME280;28892;55.640;37.532;2023-02-03T03:48:28;97949.47;;;-0.21;75.71
43298;BME280;28892;55.640;37.532;2023-02-03T03:51:08;97943.97;;;-0.18;75.73
43298;BME280;28892;55.640;37.532;2023-02-03T03:53:38;97938.69;;;-0.36;75.81
43298;BME280;28892;55.640;37.532;2023-02-03T03:56:06;97950.53;;;-0.51;76.57
43298;BME280;28892;55.640;37.532;2023-02-03T03:58:35;97951.28;;;-0.31;76.24
43298;BME280;28892;55.640;37.532;2023-02-03T04:01:05;97948.44;;;-0.38;76.46
43298;BME280;28892;55.640;37.532;2023-02-03T04:03:38;97957.19;;;-0.29;75.98
43298;BME280;28892;55.640;37.532;2023-02-03T04:06:05;97947.22;;;-0.16;75.84
43298;BME280;28892;55.640;37.532;2023-02-03T04:08:31;97956.38;;;-0.02;75.15
43298;BME280;28892;55.640;37.532;2023-02-03T04:10:57;97953.31;;;0.03;74.93
43298;BME280;28892;55.640;37.532;2023-02-03T04:13:24;97960.63;;;-0.38;76.13
43298;BME280;28892;55.640;37.532;2023-02-03T04:15:49;97956.78;;;-0.34;76.45
43298;BME280;28892;55.640;37.532;2023-02-03T04:18:15;97952.78;;;-0.01;75.85
43298;BME280;28892;55.640;37.532;2023-02-03T04:20:41;97948.88;;;-0.15;75.71
43298;BME280;28892;55.640;37.532;2023-02-03T04:23:08;97948.75;;;-0.23;76.19
43298;BME280;28892;55.640;37.532;2023-02-03T04:25:34;97950.94;;;0.10;75.62
43298;BME280;28892;55.640;37.532;2023-02-03T04:28:00;97956.13;;;-0.08;75.51
43298;BME280;28892;55.640;37.532;2023-02-03T04:30:26;97953.41;;;0.11;75.34
43298;BME280;28892;55.640;37.532;2023-02-03T04:32:51;97956.22;;;0.00;75.34
43298;BME280;28892;55.640;37.532;2023-02-03T04:35:17;97962.88;;;-0.16;75.75
43298;BME280;28892;55.640;37.532;2023-02-03T04:37:43;97960.06;;;-0.04;75.90
43298;BME280;28892;55.640;37.532;2023-02-03T04:40:10;97951.09;;;0.08;75.43
43298;BME280;28892;55.640;37.532;2023-02-03T04:42:37;97966.00;;;0.16;74.89
43298;BME280;28892;55.640;37.532;2023-02-03T04:45:05;97957.59;;;-0.06;75.43
43298;BME280;28892;55.640;37.532;2023-02-03T04:47:31;97949.81;;;-0.44;76.38
43298;BME280;28892;55.640;37.532;2023-02-03T04:49:57;97953.88;;;-0.69;77.87
43298;BME280;28892;55.640;37.532;2023-02-03T04:52:23;97954.31;;;-0.08;77.62
43298;BME280;28892;55.640;37.532;2023-02-03T04:54:49;97957.38;;;-0.12;77.08
43298;BME280;28892;55.640;37.532;2023-02-03T04:57:15;97941.59;;;-0.11;76.50
43298;BME280;28892;55.640;37.532;2023-02-03T04:59:41;97955.56;;;0.16;75.45
43298;BME280;28892;55.640;37.532;2023-02-03T05:02:06;97957.28;;;0.07;75.69
43298;BME280;28892;55.640;37.532;2023-02-03T05:04:36;97962.06;;;0.30;75.27
43298;BME280;28892;55.640;37.532;2023-02-03T05:07:01;97946.91;;;-0.03;75.83
43298;BME280;28892;55.640;37.532;2023-02-03T05:09:30;97964.09;;;-0.10;76.49
43298;BME280;28892;55.640;37.532;2023-02-03T05:11:56;97963.16;;;-0.19;76.79
43298;BME280;28892;55.640;37.532;2023-02-03T05:14:21;97960.50;;;0.19;76.27
43298;BME280;28892;55.640;37.532;2023-02-03T05:16:47;97962.38;;;0.27;75.25
43298;BME280;28892;55.640;37.532;2023-02-03T05:19:13;97957.09;;;-0.09;75.93
43298;BME280;28892;55.640;37.532;2023-02-03T05:21:39;97949.31;;;0.27;75.61
43298;BME280;28892;55.640;37.532;2023-02-03T05:24:05;97950.81;;;0.11;75.30
43298;BME280;28892;55.640;37.532;2023-02-03T05:26:35;97940.16;;;0.23;75.46
43298;BME280;28892;55.640;37.532;2023-02-03T05:29:07;97965.41;;;-0.34;76.64
43298;BME280;28892;55.640;37.532;2023-02-03T05:31:46;97949.91;;;-0.25;77.39
43298;BME280;28892;55.640;37.532;2023-02-03T05:34:12;97958.66;;;0.02;77.23
43298;BME280;28892;55.640;37.532;2023-02-03T05:36:38;97962.53;;;-0.03;76.71
43298;BME280;28892;55.640;37.532;2023-02-03T05:39:04;97960.06;;;-0.04;76.58
43298;BME280;28892;55.640;37.532;2023-02-03T05:41:29;97954.34;;;0.10;76.46
43298;BME280;28892;55.640;37.532;2023-02-03T05:44:13;97966.16;;;0.15;76.33
43298;BME280;28892;55.640;37.532;2023-02-03T05:46:39;97961.72;;;-0.03;76.53
43298;BME280;28892;55.640;37.532;2023-02-03T05:49:05;97961.78;;;-0.13;77.53
43298;BME280;28892;55.640;37.532;2023-02-03T05:51:30;97966.78;;;-0.02;76.75
43298;BME280;28892;55.640;37.532;2023-02-03T05:53:56;97971.75;;;0.20;76.40
43298;BME280;28892;55.640;37.532;2023-02-03T05:56:22;97965.72;;;-0.09;76.65
43298;BME280;28892;55.640;37.532;2023-02-03T05:58:48;97962.31;;;-0.09;77.39
43298;BME280;28892;55.640;37.532;2023-02-03T06:01:15;97971.72;;;0.02;77.20
43298;BME280;28892;55.640;37.532;2023-02-03T06:03:41;97964.56;;;0.04;76.77
43298;BME280;28892;55.640;37.532;2023-02-03T06:06:07;97968.78;;;0.33;76.13
43298;BME280;28892;55.640;37.532;2023-02-03T06:08:33;97965.63;;;0.11;75.85
43298;BME280;28892;55.640;37.532;2023-02-03T06:10:58;97970.31;;;0.07;75.91
43298;BME280;28892;55.640;37.532;2023-02-03T06:13:25;97963.03;;;0.29;75.58
43298;BME280;28892;55.640;37.532;2023-02-03T06:15:51;97975.81;;;0.68;74.84
43298;BME280;28892;55.640;37.532;2023-02-03T06:18:17;97985.78;;;0.37;74.72
43298;BME280;28892;55.640;37.532;2023-02-03T06:20:43;97974.50;;;0.18;75.54
43298;BME280;28892;55.640;37.532;2023-02-03T06:23:12;97968.88;;;0.23;75.52
43298;BME280;28892;55.640;37.532;2023-02-03T06:25:37;97970.56;;;0.32;75.45
43298;BME280;28892;55.640;37.532;2023-02-03T06:28:03;97967.78;;;0.44;75.44
43298;BME280;28892;55.640;37.532;2023-02-03T06:30:29;97966.34;;;0.03;76.35
43298;BME280;28892;55.640;37.532;2023-02-03T06:32:55;97965.50;;;0.12;76.59
43298;BME280;28892;55.640;37.532;2023-02-03T06:35:20;97965.06;;;0.35;76.51
43298;BME280;28892;55.640;37.532;2023-02-03T06:37:46;97968.00;;;0.50;75.80
43298;BME280;28892;55.640;37.532;2023-02-03T06:40:12;97980.06;;;0.33;75.61
43298;BME280;28892;55.640;37.532;2023-02-03T06:42:44;97976.16;;;0.19;76.20
43298;BME280;28892;55.640;37.532;2023-02-03T06:45:10;97975.59;;;0.44;76.03
43298;BME280;28892;55.640;37.532;2023-02-03T06:47:39;97980.50;;;0.01;76.68
43298;BME280;28892;55.640;37.532;2023-02-03T06:50:05;97974.34;;;0.20;76.57
43298;BME280;28892;55.640;37.532;2023-02-03T06:52:31;97977.91;;;0.47;76.44
43298;BME280;28892;55.640;37.532;2023-02-03T06:54:56;97977.06;;;0.64;75.34
43298;BME280;28892;55.640;37.532;2023-02-03T06:57:22;97963.00;;;0.57;75.03
43298;BME280;28892;55.640;37.532;2023-02-03T06:59:48;97963.66;;;0.59;75.21
43298;BME280;28892;55.640;37.532;2023-02-03T07:02:13;97967.31;;;0.66;75.00
43298;BME280;28892;55.640;37.532;2023-02-03T07:04:39;97970.28;;;0.72;75.15
43298;BME280;28892;55.640;37.532;2023-02-03T07:07:04;97975.16;;;0.85;74.90
43298;BME280;28892;55.640;37.532;2023-02-03T07:09:30;97982.56;;;0.97;74.18
43298;BME280;28892;55.640;37.532;2023-02-03T07:11:56;97984.41;;;0.61;74.65
43298;BME280;28892;55.640;37.532;2023-02-03T07:14:24;97971.75;;;0.20;75.08
43298;BME280;28892;55.640;37.532;2023-02-03T07:16:50;97970.91;;;0.65;75.11
43298;BME280;28892;55.640;37.532;2023-02-03T07:19:15;97970.44;;;0.52;74.67
43298;BME280;28892;55.640;37.532;2023-02-03T07:21:41;97978.78;;;0.74;74.34
43298;BME280;28892;55.640;37.532;2023-02-03T07:24:06;97979.19;;;0.79;74.05
43298;BME280;28892;55.640;37.532;2023-02-03T07:26:32;97970.13;;;0.37;74.60
43298;BME280;28892;55.640;37.532;2023-02-03T07:28:58;97970.59;;;0.68;74.57
43298;BME280;28892;55.640;37.532;2023-02-03T07:31:25;97968.53;;;0.72;73.78
43298;BME280;28892;55.640;37.532;2023-02-03T07:33:50;97972.59;;;0.57;74.30
43298;BME280;28892;55.640;37.532;2023-02-03T07:36:19;97974.97;;;0.32;75.42
43298;BME280;28892;55.640;37.532;2023-02-03T07:38:44;97975.28;;;0.47;75.15
43298;BME280;28892;55.640;37.532;2023-02-03T07:41:10;97972.13;;;0.25;75.60
43298;BME280;28892;55.640;37.532;2023-02-03T07:43:36;97969.47;;;0.35;75.36
43298;BME280;28892;55.640;37.532;2023-02-03T07:46:02;97975.38;;;0.09;76.01
43298;BME280;28892;55.640;37.532;2023-02-03T07:48:28;97972.91;;;0.53;75.68
43298;BME280;28892;55.640;37.532;2023-02-03T07:50:53;97965.88;;;0.54;74.98
43298;BME280;28892;55.640;37.532;2023-02-03T07:53:20;97972.81;;;0.45;74.97
43298;BME280;28892;55.640;37.532;2023-02-03T07:55:48;97968.22;;;0.57;75.71
43298;BME280;28892;55.640;37.532;2023-02-03T07:58:14;97967.09;;;0.60;75.13
43298;BME280;28892;55.640;37.532;2023-02-03T08:00:41;97970.16;;;0.73;74.85
43298;BME280;28892;55.640;37.532;2023-02-03T08:03:10;97970.41;;;1.06;74.09
43298;BME280;28892;55.640;37.532;2023-02-03T08:05:35;97966.94;;;1.24;73.16
43298;BME280;28892;55.640;37.532;2023-02-03T08:08:01;97966.69;;;1.09;73.04
43298;BME280;28892;55.640;37.532;2023-02-03T08:10:27;97972.53;;;0.66;74.59
43298;BME280;28892;55.640;37.532;2023-02-03T08:12:54;97961.25;;;0.11;76.10
43298;BME280;28892;55.640;37.532;2023-02-03T08:15:20;97958.06;;;0.54;76.14
43298;BME280;28892;55.640;37.532;2023-02-03T08:17:49;97952.56;;;0.39;75.94
43298;BME280;28892;55.640;37.532;2023-02-03T08:20:16;97945.00;;;0.36;76.22
43298;BME280;28892;55.640;37.532;2023-02-03T08:22:42;97956.41;;;0.89;75.56
43298;BME280;28892;55.640;37.532;2023-02-03T08:25:09;97955.78;;;0.95;74.21
43298;BME280;28892;55.640;37.532;2023-02-03T08:27:35;97948.09;;;0.67;74.75
43298;BME280;28892;55.640;37.532;2023-02-03T08:30:00;97950.59;;;0.77;75.24
43298;BME280;28892;55.640;37.532;2023-02-03T08:32:32;97943.88;;;0.93;74.71
43298;BME280;28892;55.640;37.532;2023-02-03T08:34:58;97953.16;;;1.14;74.14
43298;BME280;28892;55.640;37.532;2023-02-03T08:37:24;97960.19;;;1.39;73.55
43298;BME280;28892;55.640;37.532;2023-02-03T08:39:50;97962.31;;;1.71;72.83
43298;BME280;28892;55.640;37.532;2023-02-03T08:42:17;97946.34;;;1.82;71.68
43298;BME280;28892;55.640;37.532;2023-02-03T08:44:44;97948.50;;;1.87;71.15
43298;BME280;28892;55.640;37.532;2023-02-03T08:47:10;97954.31;;;1.72;71.25
43298;BME280;28892;55.640;37.532;2023-02-03T08:49:36;97957.19;;;1.26;72.38
43298;BME280;28892;55.640;37.532;2023-02-03T08:52:05;97960.50;;;1.10;73.39
43298;BME280;28892;55.640;37.532;2023-02-03T08:54:31;97963.28;;;0.90;73.58
43298;BME280;28892;55.640;37.532;2023-02-03T08:56:57;97951.22;;;1.16;73.61
43298;BME280;28892;55.640;37.532;2023-02-03T08:59:39;97953.38;;;1.20;73.56
43298;BME280;28892;55.640;37.532;2023-02-03T09:02:16;97956.91;;;1.11;73.53
43298;BME280;28892;55.640;37.532;2023-02-03T09:04:42;97965.66;;;1.02;73.61
43298;BME280;28892;55.640;37.532;2023-02-03T09:07:09;97952.56;;;1.20;73.94
43298;BME280;28892;55.640;37.532;2023-02-03T09:09:36;97953.16;;;1.40;73.28
43298;BME280;28892;55.640;37.532;2023-02-03T09:12:02;97950.59;;;1.22;72.69
43298;BME280;28892;55.640;37.532;2023-02-03T09:14:30;97950.91;;;1.19;73.54
43298;BME280;28892;55.640;37.532;2023-02-03T09:16:58;97943.59;;;1.22;73.01
43298;BME280;28892;55.640;37.532;2023-02-03T09:19:24;97944.50;;;1.13;73.76
43298;BME280;28892;55.640;37.532;2023-02-03T09:21:50;97937.06;;;1.27;73.19
43298;BME280;28892;55.640;37.532;2023-02-03T09:24:17;97942.59;;;0.97;74.12
43298;BME280;28892;55.640;37.532;2023-02-03T09:26:43;97956.00;;;1.02;74.30
43298;BME280;28892;55.640;37.532;2023-02-03T09:29:09;97954.84;;;1.23;74.02
43298;BME280;28892;55.640;37.532;2023-02-03T09:31:35;97950.41;;;1.15;73.82
43298;BME280;28892;55.640;37.532;2023-02-03T09:34:01;97953.03;;;0.97;74.02
43298;BME280;28892;55.640;37.532;2023-02-03T09:36:26;97938.50;;;0.94;74.42
43298;BME280;28892;55.640;37.532;2023-02-03T09:38:52;97935.19;;;1.10;73.94
43298;BME280;28892;55.640;37.532;2023-02-03T09:44:06;97938.97;;;1.16;73.50
43298;BME280;28892;55.640;37.532;2023-02-03T09:46:45;97944.06;;;0.73;75.03
43298;BME280;28892;55.640;37.532;2023-02-03T09:51:48;97934.03;;;0.87;74.82
43298;BME280;28892;55.640;37.532;2023-02-03T09:57:30;97948.19;;;1.29;73.64
43298;BME280;28892;55.640;37.532;2023-02-03T09:59:59;97953.63;;;1.09;73.57
43298;BME280;28892;55.640;37.532;2023-02-03T10:05:17;97942.25;;;1.18;73.70
43298;BME280;28892;55.640;37.532;2023-02-03T10:08:01;97948.88;;;1.31;73.64
43298;BME280;28892;55.640;37.532;2023-02-03T10:10:41;97942.44;;;1.51;72.25
43298;BME280;28892;55.640;37.532;2023-02-03T10:13:33;97938.28;;;1.67;71.87
43298;BME280;28892;55.640;37.532;2023-02-03T10:19:08;97941.75;;;1.76;70.35
43298;BME280;28892;55.640;37.532;2023-02-03T10:21:47;97944.38;;;1.49;71.32
43298;BME280;28892;55.640;37.532;2023-02-03T10:24:19;97940.13;;;1.48;71.84
43298;BME280;28892;55.640;37.532;2023-02-03T10:41:28;97933.19;;;1.04;74.00
43298;BME280;28892;55.640;37.532;2023-02-03T10:43:55;97927.19;;;1.12;73.17
43298;BME280;28892;55.640;37.532;2023-02-03T10:46:31;97939.81;;;1.51;72.97
43298;BME280;28892;55.640;37.532;2023-02-03T10:48:58;97930.34;;;1.85;71.20
43298;BME280;28892;55.640;37.532;2023-02-03T10:51:26;97925.66;;;1.97;70.97
43298;BME280;28892;55.640;37.532;2023-02-03T10:53:55;97927.59;;;1.95;70.32
43298;BME280;28892;55.640;37.532;2023-02-03T10:56:28;97925.53;;;1.72;70.20
43298;BME280;28892;55.640;37.532;2023-02-03T10:58:58;97922.16;;;1.45;71.30
43298;BME280;28892;55.640;37.532;2023-02-03T11:01:41;97920.84;;;1.41;71.57
43298;BME280;28892;55.640;37.532;2023-02-03T11:04:26;97921.16;;;1.73;71.05
43298;BME280;28892;55.640;37.532;2023-02-03T11:07:01;97900.84;;;1.58;70.79
43298;BME280;28892;55.640;37.532;2023-02-03T11:09:32;97921.66;;;1.42;71.35
43298;BME280;28892;55.640;37.532;2023-02-03T11:12:14;97900.59;;;1.86;70.28
43298;BME280;28892;55.640;37.532;2023-02-03T11:14:43;97912.50;;;1.80;70.14
43298;BME280;28892;55.640;37.532;2023-02-03T11:17:26;97902.75;;;1.56;70.89
43298;BME280;28892;55.640;37.532;2023-02-03T11:20:11;97899.91;;;1.76;70.56
43298;BME280;28892;55.640;37.532;2023-02-03T11:22:38;97918.94;;;1.94;69.82
43298;BME280;28892;55.640;37.532;2023-02-03T11:25:19;97912.19;;;1.84;69.90
43298;BME280;28892;55.640;37.532;2023-02-03T11:27:45;97907.69;;;2.02;68.63
43298;BME280;28892;55.640;37.532;2023-02-03T11:30:25;97903.59;;;2.08;69.15
43298;BME280;28892;55.640;37.532;2023-02-03T11:32:55;97904.72;;;2.05;68.30
43298;BME280;28892;55.640;37.532;2023-02-03T11:35:28;97901.28;;;1.97;68.18
43298;BME280;28892;55.640;37.532;2023-02-03T11:37:58;97909.84;;;1.72;68.48
43298;BME280;28892;55.640;37.532;2023-02-03T11:45:37;97907.78;;;1.84;67.96
43298;BME280;28892;55.640;37.532;2023-02-03T12:03:37;97914.00;;;1.48;68.93
43298;BME280;28892;55.640;37.532;2023-02-03T12:08:58;97905.38;;;1.99;67.80
43298;BME280;28892;55.640;37.532;2023-02-03T12:19:21;97900.84;;;2.26;66.57
43298;BME280;28892;55.640;37.532;2023-02-03T12:29:30;97892.13;;;1.49;67.42
43298;BME280;28892;55.640;37.532;2023-02-03T12:32:54;97878.22;;;1.41;68.24
43298;BME280;28892;55.640;37.532;2023-02-03T12:45:25;97888.06;;;2.15;66.22
43298;BME280;28892;55.640;37.532;2023-02-03T12:48:08;97891.53;;;2.23;66.06
43298;BME280;28892;55.640;37.532;2023-02-03T12:50:44;97887.88;;;2.00;66.07
43298;BME280;28892;55.640;37.532;2023-02-03T12:58:31;97889.75;;;1.64;66.83
43298;BME280;28892;55.640;37.532;2023-02-03T13:00:59;97885.97;;;1.59;68.19
43298;BME280;28892;55.640;37.532;2023-02-03T13:06:09;97894.22;;;1.80;67.26
43298;BME280;28892;55.640;37.532;2023-02-03T13:09:30;97897.19;;;1.86;67.66
43298;BME280;28892;55.640;37.532;2023-02-03T13:14:31;97895.41;;;1.94;67.68
43298;BME280;28892;55.640;37.532;2023-02-03T13:17:07;97892.06;;;1.76;68.15
43298;BME280;28892;55.640;37.532;2023-02-03T13:19:42;97885.53;;;1.72;68.19
43298;BME280;28892;55.640;37.532;2023-02-03T13:22:13;97884.91;;;1.86;67.88
43298;BME280;28892;55.640;37.532;2023-02-03T13:24:45;97897.28;;;1.76;68.33
43298;BME280;28892;55.640;37.532;2023-02-03T13:41:29;97893.94;;;1.49;71.50
43298;BME280;28892;55.640;37.532;2023-02-03T13:44:00;97896.25;;;1.25;72.03
43298;BME280;28892;55.640;37.532;2023-02-03T13:46:30;97899.31;;;1.21;72.20
43298;BME280;28892;55.640;37.532;2023-02-03T13:48:59;97898.47;;;1.12;72.49
43298;BME280;28892;55.640;37.532;2023-02-03T13:51:29;97897.59;;;0.77;74.36
43298;BME280;28892;55.640;37.532;2023-02-03T13:54:05;97895.16;;;1.02;74.21
43298;BME280;28892;55.640;37.532;2023-02-03T13:56:32;97903.06;;;0.92;74.48
43298;BME280;28892;55.640;37.532;2023-02-03T13:59:04;97904.75;;;1.01;75.46
43298;BME280;28892;55.640;37.532;2023-02-03T14:01:37;97907.81;;;0.96;75.87
43298;BME280;28892;55.640;37.532;2023-02-03T14:04:05;97906.09;;;1.05;75.41
43298;BME280;28892;55.640;37.532;2023-02-03T14:09:02;97895.94;;;1.02;76.75
43298;BME280;28892;55.640;37.532;2023-02-03T14:16:44;97899.97;;;1.15;75.04
43298;BME280;28892;55.640;37.532;2023-02-03T14:22:03;97897.03;;;0.47;77.25
43298;BME280;28892;55.640;37.532;2023-02-03T14:24:33;97905.34;;;0.68;77.31
43298;BME280;28892;55.640;37.532;2023-02-03T14:27:01;97888.75;;;0.96;76.26
43298;BME280;28892;55.640;37.532;2023-02-03T14:29:37;97888.94;;;1.03;75.67
43298;BME280;28892;55.640;37.532;2023-02-03T14:32:12;97890.84;;;1.19;75.03
43298;BME280;28892;55.640;37.532;2023-02-03T14:34:47;97894.41;;;1.18;75.00
43298;BME280;28892;55.640;37.532;2023-02-03T14:45:14;97898.59;;;0.84;76.43
43298;BME280;28892;55.640;37.532;2023-02-03T14:47:58;97889.41;;;0.98;76.42
43298;BME280;28892;55.640;37.532;2023-02-03T14:59:47;97896.63;;;0.78;76.18
43298;BME280;28892;55.640;37.532;2023-02-03T15:02:20;97905.94;;;1.07;75.68
43298;BME280;28892;55.640;37.532;2023-02-03T15:04:52;97905.59;;;1.02;75.47
43298;BME280;28892;55.640;37.532;2023-02-03T15:07:45;97900.75;;;0.89;75.88
43298;BME280;28892;55.640;37.532;2023-02-03T15:10:40;97905.50;;;0.67;76.39
43298;BME280;28892;55.640;37.532;2023-02-03T15:13:25;97910.81;;;1.02;76.21
43298;BME280;28892;55.640;37.532;2023-02-03T15:15:54;97911.69;;;1.10;75.41
43298;BME280;28892;55.640;37.532;2023-02-03T15:18:28;97901.91;;;0.68;76.45
43298;BME280;28892;55.640;37.532;2023-02-03T15:20:55;97906.97;;;0.88;76.29
43298;BME280;28892;55.640;37.532;2023-02-03T15:23:21;97898.84;;;0.73;76.62
43298;BME280;28892;55.640;37.532;2023-02-03T15:25:58;97903.06;;;0.65;76.67
43298;BME280;28892;55.640;37.532;2023-02-03T15:28:26;97911.75;;;0.74;76.81
43298;BME280;28892;55.640;37.532;2023-02-03T15:31:19;97910.50;;;0.60;77.32
43298;BME280;28892;55.640;37.532;2023-02-03T15:33:48;97903.53;;;0.87;76.66
43298;BME280;28892;55.640;37.532;2023-02-03T15:36:29;97906.84;;;0.71;76.60
43298;BME280;28892;55.640;37.532;2023-02-03T15:42:14;97919.00;;;0.62;77.37
43298;BME280;28892;55.640;37.532;2023-02-03T15:44:50;97919.53;;;0.48;78.20